Terminal Aerodrome Forecast
Issued by NWS

Home | Current Version | Previous Version | Text Only | Print | Product List | Glossary On
Versions: 1 2 3 4 5 6 7 8 9 10 11 12 13 14 15 16 17 18 19 20 21 22 23 24
000
FTAK31 PAJN 252326
TAFAGY
TAF
PAGY 252326Z 2600/2624 04011KT P6SM FEW120
     FM260900 VRB04KT P6SM SCT060
     FM261500 20020G28KT 6SM -SN OVC040
     FM261700 20020G30KT 2SM -SN OVC020
     FM262200 21030G45KT P6SM VCSH OVC050
      AMD LTD TO CLD VIS AND WIND=

USA.gov is the U.S. government's official web portal to all federal, state and local government web resources and services.